Rocky Point, North Carolina
Current Conditions -  °F | °C
As of 10:53 PM on Friday 19 Dec 2014 (Local Time) from KILM Reporting Station
Clear Clear  
Wind Chill: 41°   Ceiling: Unl
Heat Index: 45°   Visibility: 10mi
Dew Point: 34°   Wind: 8mph
Humidity: 65%   Direction: 50°NE
Pressure: 30.19"   Gusts: NA
Location:  34.43°N, 77.89°W
Report Text: KILM 200353Z 05007KT 10SM CLR 07/01 A3019 RMK AO2 SLP223 T00720011
Loading
Personal Weather Stations






























Interactive Weather Map New forecast layout! Learn more

10-Day Weather Forecast

Advertisements
Track Severe Weather on mobile